sensor_id;sensor_type;location;lat;lon;timestamp;pressure;altitude;pressure_sealevel;temperature;humidity
7824;BME280;3957;48.61947800;9.05303100;2023-05-21T00:00:16;95704.41;;;12.98;100.00
7824;BME280;3957;48.61947800;9.05303100;2023-05-21T00:01:18;95707.78;;;12.93;100.00
7824;BME280;3957;48.61947800;9.05303100;2023-05-21T00:02:19;95703.31;;;12.87;100.00
7824;BME280;3957;48.61947800;9.05303100;2023-05-21T00:03:21;95706.66;;;12.83;100.00
7824;BME280;3957;48.61947800;9.05303100;2023-05-21T00:04:27;95697.22;;;12.80;100.00
7824;BME280;3957;48.61947800;9.05303100;2023-05-21T00:05:29;95698.63;;;12.83;100.00
7824;BME280;3957;48.61947800;9.05303100;2023-05-21T00:06:31;95699.84;;;12.99;100.00
7824;BME280;3957;48.61947800;9.05303100;2023-05-21T00:07:33;95703.72;;;13.03;100.00
7824;BME280;3957;48.61947800;9.05303100;2023-05-21T00:08:34;95701.81;;;12.91;100.00
7824;BME280;3957;48.61947800;9.05303100;2023-05-21T00:09:36;95701.91;;;12.85;100.00
7824;BME280;3957;48.61947800;9.05303100;2023-05-21T00:10:41;95702.59;;;12.80;100.00
7824;BME280;3957;48.61947800;9.05303100;2023-05-21T00:11:42;95696.03;;;12.76;100.00
7824;BME280;3957;48.61947800;9.05303100;2023-05-21T00:12:44;95698.94;;;12.74;100.00
7824;BME280;3957;48.61947800;9.05303100;2023-05-21T00:13:46;95702.06;;;12.71;100.00
7824;BME280;3957;48.61947800;9.05303100;2023-05-21T00:14:47;95701.50;;;12.69;100.00
7824;BME280;3957;48.61947800;9.05303100;2023-05-21T00:15:49;95696.25;;;12.74;100.00
7824;BME280;3957;48.61947800;9.05303100;2023-05-21T00:16:51;95691.09;;;12.73;100.00
7824;BME280;3957;48.61947800;9.05303100;2023-05-21T00:17:53;95696.47;;;12.73;100.00
7824;BME280;3957;48.61947800;9.05303100;2023-05-21T00:18:54;95700.66;;;12.69;100.00
7824;BME280;3957;48.61947800;9.05303100;2023-05-21T00:19:58;95690.63;;;12.64;100.00
7824;BME280;3957;48.61947800;9.05303100;2023-05-21T00:21:00;95695.06;;;12.70;100.00
7824;BME280;3957;48.61947800;9.05303100;2023-05-21T00:22:02;95692.25;;;12.65;100.00
7824;BME280;3957;48.61947800;9.05303100;2023-05-21T00:23:05;95691.66;;;12.63;100.00
7824;BME280;3957;48.61947800;9.05303100;2023-05-21T00:24:06;95692.34;;;12.58;100.00
7824;BME280;3957;48.61947800;9.05303100;2023-05-21T00:25:09;95682.63;;;12.57;100.00
7824;BME280;3957;48.61947800;9.05303100;2023-05-21T00:26:11;95685.56;;;12.56;100.00
7824;BME280;3957;48.61947800;9.05303100;2023-05-21T00:27:15;95682.88;;;12.56;100.00
7824;BME280;3957;48.61947800;9.05303100;2023-05-21T00:28:16;95680.19;;;12.56;100.00
7824;BME280;3957;48.61947800;9.05303100;2023-05-21T00:29:18;95679.59;;;12.54;100.00
7824;BME280;3957;48.61947800;9.05303100;2023-05-21T00:30:21;95679.81;;;12.52;100.00
7824;BME280;3957;48.61947800;9.05303100;2023-05-21T00:31:23;95678.31;;;12.56;100.00
7824;BME280;3957;48.61947800;9.05303100;2023-05-21T00:32:24;95674.97;;;12.61;100.00
7824;BME280;3957;48.61947800;9.05303100;2023-05-21T00:33:26;95680.34;;;12.61;100.00
7824;BME280;3957;48.61947800;9.05303100;2023-05-21T00:34:29;95678.31;;;12.56;100.00
7824;BME280;3957;48.61947800;9.05303100;2023-05-21T00:35:31;95671.31;;;12.55;100.00
7824;BME280;3957;48.61947800;9.05303100;2023-05-21T00:36:32;95668.75;;;12.61;100.00
7824;BME280;3957;48.61947800;9.05303100;2023-05-21T00:37:35;95672.72;;;12.58;100.00
7824;BME280;3957;48.61947800;9.05303100;2023-05-21T00:38:36;95667.81;;;12.55;100.00
7824;BME280;3957;48.61947800;9.05303100;2023-05-21T00:39:38;95671.53;;;12.54;100.00
7824;BME280;3957;48.61947800;9.05303100;2023-05-21T00:40:39;95669.91;;;12.53;100.00
7824;BME280;3957;48.61947800;9.05303100;2023-05-21T00:41:41;95667.88;;;12.48;100.00
7824;BME280;3957;48.61947800;9.05303100;2023-05-21T00:42:47;95669.19;;;12.46;100.00
7824;BME280;3957;48.61947800;9.05303100;2023-05-21T00:43:50;95668.56;;;12.44;100.00
7824;BME280;3957;48.61947800;9.05303100;2023-05-21T00:44:53;95664.47;;;12.41;100.00
7824;BME280;3957;48.61947800;9.05303100;2023-05-21T00:45:54;95665.09;;;12.43;100.00
7824;BME280;3957;48.61947800;9.05303100;2023-05-21T00:46:57;95664.47;;;12.41;100.00
7824;BME280;3957;48.61947800;9.05303100;2023-05-21T00:47:59;95668.19;;;12.40;100.00
7824;BME280;3957;48.61947800;9.05303100;2023-05-21T00:49:03;95665.75;;;12.38;100.00
7824;BME280;3957;48.61947800;9.05303100;2023-05-21T00:50:05;95665.31;;;12.41;100.00
7824;BME280;3957;48.61947800;9.05303100;2023-05-21T00:51:06;95662.03;;;12.39;100.00
7824;BME280;3957;48.61947800;9.05303100;2023-05-21T00:52:08;95660.59;;;12.37;100.00
7824;BME280;3957;48.61947800;9.05303100;2023-05-21T00:53:11;95664.13;;;12.37;100.00
7824;BME280;3957;48.61947800;9.05303100;2023-05-21T00:54:14;95664.69;;;12.39;100.00
7824;BME280;3957;48.61947800;9.05303100;2023-05-21T00:55:16;95664.69;;;12.39;100.00
7824;BME280;3957;48.61947800;9.05303100;2023-05-21T00:56:19;95663.91;;;12.39;100.00
7824;BME280;3957;48.61947800;9.05303100;2023-05-21T00:57:24;95662.25;;;12.38;100.00
7824;BME280;3957;48.61947800;9.05303100;2023-05-21T00:58:28;95668.06;;;12.35;100.00
7824;BME280;3957;48.61947800;9.05303100;2023-05-21T00:59:31;95665.63;;;12.33;100.00
7824;BME280;3957;48.61947800;9.05303100;2023-05-21T01:00:35;95662.31;;;12.31;100.00
7824;BME280;3957;48.61947800;9.05303100;2023-05-21T01:01:38;95667.69;;;12.31;100.00
7824;BME280;3957;48.61947800;9.05303100;2023-05-21T01:02:40;95659.66;;;12.31;100.00
7824;BME280;3957;48.61947800;9.05303100;2023-05-21T01:03:42;95662.63;;;12.41;100.00
7824;BME280;3957;48.61947800;9.05303100;2023-05-21T01:04:44;95664.84;;;12.45;100.00
7824;BME280;3957;48.61947800;9.05303100;2023-05-21T01:05:46;95662.03;;;12.39;100.00
7824;BME280;3957;48.61947800;9.05303100;2023-05-21T01:06:49;95663.22;;;12.44;100.00
7824;BME280;3957;48.61947800;9.05303100;2023-05-21T01:07:51;95664.47;;;12.41;100.00
7824;BME280;3957;48.61947800;9.05303100;2023-05-21T01:08:54;95663.91;;;12.39;100.00
7824;BME280;3957;48.61947800;9.05303100;2023-05-21T01:09:57;95657.25;;;12.41;100.00
7824;BME280;3957;48.61947800;9.05303100;2023-05-21T01:11:00;95665.16;;;12.36;100.00
7824;BME280;3957;48.61947800;9.05303100;2023-05-21T01:12:03;95656.16;;;12.31;100.00
7824;BME280;3957;48.61947800;9.05303100;2023-05-21T01:13:05;95659.06;;;12.29;100.00
7824;BME280;3957;48.61947800;9.05303100;2023-05-21T01:14:09;95653.53;;;12.24;100.00
7824;BME280;3957;48.61947800;9.05303100;2023-05-21T01:15:13;95660.44;;;12.32;100.00
7824;BME280;3957;48.61947800;9.05303100;2023-05-21T01:16:15;95661.28;;;12.32;100.00
7824;BME280;3957;48.61947800;9.05303100;2023-05-21T01:17:18;95658.44;;;12.27;100.00
7824;BME280;3957;48.61947800;9.05303100;2023-05-21T01:18:25;95656.22;;;12.24;100.00
7824;BME280;3957;48.61947800;9.05303100;2023-05-21T01:19:27;95655.63;;;12.22;100.00
7824;BME280;3957;48.61947800;9.05303100;2023-05-21T01:20:29;95656.91;;;12.19;100.00
7824;BME280;3957;48.61947800;9.05303100;2023-05-21T01:21:35;95650.25;;;12.22;100.00
7824;BME280;3957;48.61947800;9.05303100;2023-05-21T01:22:46;95652.59;;;12.18;100.00
7824;BME280;3957;48.61947800;9.05303100;2023-05-21T01:23:49;95650.34;;;12.15;100.00
7824;BME280;3957;48.61947800;9.05303100;2023-05-21T01:24:53;95657.00;;;12.13;100.00
7824;BME280;3957;48.61947800;9.05303100;2023-05-21T01:25:55;95651.31;;;12.21;100.00
7824;BME280;3957;48.61947800;9.05303100;2023-05-21T01:26:59;95652.63;;;12.30;100.00
7824;BME280;3957;48.61947800;9.05303100;2023-05-21T01:28:01;95655.84;;;12.20;100.00
7824;BME280;3957;48.61947800;9.05303100;2023-05-21T01:29:06;95654.06;;;12.14;100.00
7824;BME280;3957;48.61947800;9.05303100;2023-05-21T01:30:14;95651.31;;;12.21;100.00
7824;BME280;3957;48.61947800;9.05303100;2023-05-21T01:31:26;95656.84;;;12.07;100.00
7824;BME280;3957;48.61947800;9.05303100;2023-05-21T01:33:46;95654.66;;;11.98;100.00
7824;BME280;3957;48.61947800;9.05303100;2023-05-21T01:34:59;95653.53;;;12.05;100.00
7824;BME280;3957;48.61947800;9.05303100;2023-05-21T01:36:12;95647.88;;;12.14;100.00
7824;BME280;3957;48.61947800;9.05303100;2023-05-21T01:37:20;95653.34;;;12.07;100.00
7824;BME280;3957;48.61947800;9.05303100;2023-05-21T01:38:42;95660.03;;;11.98;100.00
7824;BME280;3957;48.61947800;9.05303100;2023-05-21T01:39:54;95657.59;;;11.96;100.00
7824;BME280;3957;48.61947800;9.05303100;2023-05-21T01:41:02;95653.91;;;12.09;100.00
7824;BME280;3957;48.61947800;9.05303100;2023-05-21T01:42:09;95652.97;;;12.03;100.00
7824;BME280;3957;48.61947800;9.05303100;2023-05-21T01:43:11;95641.56;;;12.08;100.00
7824;BME280;3957;48.61947800;9.05303100;2023-05-21T01:44:17;95655.03;;;12.01;100.00
7824;BME280;3957;48.61947800;9.05303100;2023-05-21T01:45:21;95654.59;;;12.04;100.00
7824;BME280;3957;48.61947800;9.05303100;2023-05-21T01:46:26;95648.56;;;12.09;100.00
7824;BME280;3957;48.61947800;9.05303100;2023-05-21T01:47:31;95652.34;;;12.01;100.00
7824;BME280;3957;48.61947800;9.05303100;2023-05-21T01:48:33;95651.47;;;12.07;100.00
7824;BME280;3957;48.61947800;9.05303100;2023-05-21T01:49:36;95640.13;;;12.05;100.00
7824;BME280;3957;48.61947800;9.05303100;2023-05-21T01:50:39;95644.91;;;12.03;100.00
7824;BME280;3957;48.61947800;9.05303100;2023-05-21T01:51:41;95648.63;;;12.02;100.00
7824;BME280;3957;48.61947800;9.05303100;2023-05-21T01:52:54;95651.59;;;11.94;100.00
7824;BME280;3957;48.61947800;9.05303100;2023-05-21T01:53:57;95649.94;;;11.93;100.00
7824;BME280;3957;48.61947800;9.05303100;2023-05-21T01:54:58;95643.56;;;11.94;100.00
7824;BME280;3957;48.61947800;9.05303100;2023-05-21T01:56:00;95644.19;;;11.96;100.00
7824;BME280;3957;48.61947800;9.05303100;2023-05-21T01:57:03;95653.69;;;11.92;100.00
7824;BME280;3957;48.61947800;9.05303100;2023-05-21T01:58:05;95646.66;;;11.91;100.00
7824;BME280;3957;48.61947800;9.05303100;2023-05-21T01:59:07;95647.25;;;11.93;100.00
7824;BME280;3957;48.61947800;9.05303100;2023-05-21T02:00:09;95651.38;;;11.96;100.00
7824;BME280;3957;48.61947800;9.05303100;2023-05-21T02:01:19;95646.84;;;11.96;100.00
7824;BME280;3957;48.61947800;9.05303100;2023-05-21T02:02:21;95638.50;;;12.04;100.00
7824;BME280;3957;48.61947800;9.05303100;2023-05-21T02:03:25;95637.09;;;12.02;100.00
7824;BME280;3957;48.61947800;9.05303100;2023-05-21T02:04:27;95631.88;;;12.07;100.00
7824;BME280;3957;48.61947800;9.05303100;2023-05-21T02:05:29;95633.81;;;12.00;100.00
7824;BME280;3957;48.61947800;9.05303100;2023-05-21T02:06:31;95642.13;;;11.91;100.00
7824;BME280;3957;48.61947800;9.05303100;2023-05-21T02:07:33;95641.50;;;11.96;100.00
7824;BME280;3957;48.61947800;9.05303100;2023-05-21T02:08:34;95638.69;;;11.84;100.00
7824;BME280;3957;48.61947800;9.05303100;2023-05-21T02:09:36;95638.53;;;11.79;100.00
7824;BME280;3957;48.61947800;9.05303100;2023-05-21T02:10:38;95635.03;;;11.79;100.00
7824;BME280;3957;48.61947800;9.05303100;2023-05-21T02:11:39;95636.91;;;11.78;100.00
7824;BME280;3957;48.61947800;9.05303100;2023-05-21T02:12:41;95642.06;;;11.80;100.00
7824;BME280;3957;48.61947800;9.05303100;2023-05-21T02:13:43;95640.63;;;11.77;100.00
7824;BME280;3957;48.61947800;9.05303100;2023-05-21T02:14:46;95645.19;;;11.77;100.00
7824;BME280;3957;48.61947800;9.05303100;2023-05-21T02:15:50;95641.88;;;11.74;100.00
7824;BME280;3957;48.61947800;9.05303100;2023-05-21T02:16:56;95642.28;;;11.78;100.00
7824;BME280;3957;48.61947800;9.05303100;2023-05-21T02:17:58;95648.44;;;11.79;100.00
7824;BME280;3957;48.61947800;9.05303100;2023-05-21T02:19:00;95644.72;;;11.80;100.00
7824;BME280;3957;48.61947800;9.05303100;2023-05-21T02:20:02;95644.06;;;11.84;100.00
7824;BME280;3957;48.61947800;9.05303100;2023-05-21T02:21:11;95646.72;;;11.84;100.00
7824;BME280;3957;48.61947800;9.05303100;2023-05-21T02:22:13;95640.34;;;11.85;100.00
7824;BME280;3957;48.61947800;9.05303100;2023-05-21T02:23:14;95642.06;;;11.80;100.00
7824;BME280;3957;48.61947800;9.05303100;2023-05-21T02:24:16;95640.84;;;11.76;100.00
7824;BME280;3957;48.61947800;9.05303100;2023-05-21T02:25:18;95642.13;;;11.73;100.00
7824;BME280;3957;48.61947800;9.05303100;2023-05-21T02:26:21;95644.41;;;11.69;100.00
7824;BME280;3957;48.61947800;9.05303100;2023-05-21T02:27:23;95639.28;;;11.68;100.00
7824;BME280;3957;48.61947800;9.05303100;2023-05-21T02:28:25;95643.81;;;11.67;100.00
7824;BME280;3957;48.61947800;9.05303100;2023-05-21T02:29:28;95636.44;;;11.63;100.00
7824;BME280;3957;48.61947800;9.05303100;2023-05-21T02:30:29;95633.97;;;11.61;100.00
7824;BME280;3957;48.61947800;9.05303100;2023-05-21T02:31:31;95637.09;;;11.58;100.00
7824;BME280;3957;48.61947800;9.05303100;2023-05-21T02:32:33;95637.44;;;11.68;100.00
7824;BME280;3957;48.61947800;9.05303100;2023-05-21T02:33:35;95636.22;;;11.64;100.00
7824;BME280;3957;48.61947800;9.05303100;2023-05-21T02:34:37;95638.53;;;11.61;100.00
7824;BME280;3957;48.61947800;9.05303100;2023-05-21T02:35:42;95631.28;;;11.61;100.00
7824;BME280;3957;48.61947800;9.05303100;2023-05-21T02:36:45;95634.34;;;11.65;100.00
7824;BME280;3957;48.61947800;9.05303100;2023-05-21T02:37:52;95638.53;;;11.61;100.00
7824;BME280;3957;48.61947800;9.05303100;2023-05-21T02:38:54;95624.31;;;11.60;100.00
7824;BME280;3957;48.61947800;9.05303100;2023-05-21T02:39:58;95633.63;;;11.57;100.00
7824;BME280;3957;48.61947800;9.05303100;2023-05-21T02:41:00;95628.63;;;11.61;100.00
7824;BME280;3957;48.61947800;9.05303100;2023-05-21T02:42:02;95626.66;;;11.50;100.00
7824;BME280;3957;48.61947800;9.05303100;2023-05-21T02:43:03;95628.16;;;11.46;100.00
7824;BME280;3957;48.61947800;9.05303100;2023-05-21T02:44:05;95628.16;;;11.46;100.00
7824;BME280;3957;48.61947800;9.05303100;2023-05-21T02:45:08;95625.31;;;11.40;100.00
7824;BME280;3957;48.61947800;9.05303100;2023-05-21T02:46:11;95632.69;;;11.45;100.00
7824;BME280;3957;48.61947800;9.05303100;2023-05-21T02:47:13;95632.03;;;11.50;100.00
7824;BME280;3957;48.61947800;9.05303100;2023-05-21T02:48:15;95639.47;;;11.48;100.00
7824;BME280;3957;48.61947800;9.05303100;2023-05-21T02:49:17;95629.56;;;11.48;100.00
7824;BME280;3957;48.61947800;9.05303100;2023-05-21T02:50:21;95634.72;;;11.50;100.00
7824;BME280;3957;48.61947800;9.05303100;2023-05-21T02:51:32;95628.75;;;11.48;100.00
7824;BME280;3957;48.61947800;9.05303100;2023-05-21T02:52:34;95629.00;;;11.46;100.00
7824;BME280;3957;48.61947800;9.05303100;2023-05-21T02:53:35;95631.28;;;11.43;100.00
7824;BME280;3957;48.61947800;9.05303100;2023-05-21T02:54:38;95626.38;;;11.39;100.00
7824;BME280;3957;48.61947800;9.05303100;2023-05-21T02:55:39;95627.78;;;11.42;100.00
7824;BME280;3957;48.61947800;9.05303100;2023-05-21T02:56:42;95626.38;;;11.39;100.00
7824;BME280;3957;48.61947800;9.05303100;2023-05-21T02:57:43;95629.03;;;11.39;100.00
7824;BME280;3957;48.61947800;9.05303100;2023-05-21T02:58:45;95625.16;;;11.35;100.00
7824;BME280;3957;48.61947800;9.05303100;2023-05-21T02:59:47;95623.53;;;11.34;100.00
7824;BME280;3957;48.61947800;9.05303100;2023-05-21T03:00:48;95630.53;;;11.35;100.00
7824;BME280;3957;48.61947800;9.05303100;2023-05-21T03:01:50;95629.69;;;11.35;100.00
7824;BME280;3957;48.61947800;9.05303100;2023-05-21T03:02:52;95623.97;;;11.31;100.00
7824;BME280;3957;48.61947800;9.05303100;2023-05-21T03:03:54;95632.22;;;11.30;100.00
7824;BME280;3957;48.61947800;9.05303100;2023-05-21T03:04:56;95622.38;;;11.23;100.00
7824;BME280;3957;48.61947800;9.05303100;2023-05-21T03:05:57;95625.84;;;11.24;100.00
7824;BME280;3957;48.61947800;9.05303100;2023-05-21T03:06:59;95626.09;;;11.22;100.00
7824;BME280;3957;48.61947800;9.05303100;2023-05-21T03:08:02;95625.66;;;11.26;100.00
7824;BME280;3957;48.61947800;9.05303100;2023-05-21T03:09:04;95625.84;;;11.24;100.00
7824;BME280;3957;48.61947800;9.05303100;2023-05-21T03:10:06;95627.72;;;11.23;100.00
7824;BME280;3957;48.61947800;9.05303100;2023-05-21T03:11:08;95623.63;;;11.21;100.00
7824;BME280;3957;48.61947800;9.05303100;2023-05-21T03:12:10;95630.47;;;11.17;100.00
7824;BME280;3957;48.61947800;9.05303100;2023-05-21T03:13:12;95625.31;;;11.15;100.00
7824;BME280;3957;48.61947800;9.05303100;2023-05-21T03:14:13;95625.28;;;11.22;100.00
7824;BME280;3957;48.61947800;9.05303100;2023-05-21T03:15:15;95624.06;;;11.18;100.00
7824;BME280;3957;48.61947800;9.05303100;2023-05-21T03:16:17;95622.19;;;11.18;100.00
7824;BME280;3957;48.61947800;9.05303100;2023-05-21T03:17:18;95627.38;;;11.20;100.00
7824;BME280;3957;48.61947800;9.05303100;2023-05-21T03:18:21;95623.19;;;11.24;100.00
7824;BME280;3957;48.61947800;9.05303100;2023-05-21T03:19:23;95626.31;;;11.21;100.00
7824;BME280;3957;48.61947800;9.05303100;2023-05-21T03:20:25;95622.19;;;11.18;100.00
7824;BME280;3957;48.61947800;9.05303100;2023-05-21T03:21:28;95620.59;;;11.17;100.00
7824;BME280;3957;48.61947800;9.05303100;2023-05-21T03:22:30;95622.81;;;11.20;100.00
7824;BME280;3957;48.61947800;9.05303100;2023-05-21T03:23:32;95624.25;;;11.23;100.00
7824;BME280;3957;48.61947800;9.05303100;2023-05-21T03:24:34;95625.31;;;11.15;100.00
7824;BME280;3957;48.61947800;9.05303100;2023-05-21T03:25:37;95623.69;;;11.14;100.00
7824;BME280;3957;48.61947800;9.05303100;2023-05-21T03:26:39;95632.78;;;11.13;100.00
7824;BME280;3957;48.61947800;9.05303100;2023-05-21T03:27:41;95628.66;;;11.11;100.00
7824;BME280;3957;48.61947800;9.05303100;2023-05-21T03:29:03;95618.59;;;11.06;100.00
7824;BME280;3957;48.61947800;9.05303100;2023-05-21T03:30:05;95625.16;;;11.10;100.00
7824;BME280;3957;48.61947800;9.05303100;2023-05-21T03:31:16;95626.56;;;11.13;100.00
7824;BME280;3957;48.61947800;9.05303100;2023-05-21T03:32:22;95628.66;;;11.11;100.00
7824;BME280;3957;48.61947800;9.05303100;2023-05-21T03:33:30;95628.66;;;11.11;100.00
7824;BME280;3957;48.61947800;9.05303100;2023-05-21T03:34:32;95630.50;;;11.10;100.00
7824;BME280;3957;48.61947800;9.05303100;2023-05-21T03:35:37;95629.47;;;11.11;100.00
7824;BME280;3957;48.61947800;9.05303100;2023-05-21T03:36:38;95622.69;;;11.09;100.00
7824;BME280;3957;48.61947800;9.05303100;2023-05-21T03:37:40;95621.09;;;11.08;100.00
7824;BME280;3957;48.61947800;9.05303100;2023-05-21T03:38:42;95627.81;;;11.10;100.00
7824;BME280;3957;48.61947800;9.05303100;2023-05-21T03:39:43;95622.69;;;11.09;100.00
7824;BME280;3957;48.61947800;9.05303100;2023-05-21T03:40:46;95623.13;;;11.05;100.00
7824;BME280;3957;48.61947800;9.05303100;2023-05-21T03:41:47;95627.47;;;11.06;100.00
7824;BME280;3957;48.61947800;9.05303100;2023-05-21T03:42:57;95626.25;;;11.02;100.00
7824;BME280;3957;48.61947800;9.05303100;2023-05-21T03:43:58;95620.69;;;11.04;100.00
7824;BME280;3957;48.61947800;9.05303100;2023-05-21T03:45:05;95624.56;;;11.08;100.00
7824;BME280;3957;48.61947800;9.05303100;2023-05-21T03:46:10;95627.03;;;11.10;100.00
7824;BME280;3957;48.61947800;9.05303100;2023-05-21T03:47:30;95624.97;;;11.12;100.00
7824;BME280;3957;48.61947800;9.05303100;2023-05-21T03:48:34;95621.63;;;11.16;100.00
7824;BME280;3957;48.61947800;9.05303100;2023-05-21T03:49:36;95617.50;;;11.14;100.00
7824;BME280;3957;48.61947800;9.05303100;2023-05-21T03:50:38;95617.28;;;11.15;100.00
7824;BME280;3957;48.61947800;9.05303100;2023-05-21T03:51:40;95620.81;;;11.16;100.00
7824;BME280;3957;48.61947800;9.05303100;2023-05-21T03:52:45;95617.41;;;11.27;100.00
7824;BME280;3957;48.61947800;9.05303100;2023-05-21T03:53:46;95621.34;;;11.25;100.00
7824;BME280;3957;48.61947800;9.05303100;2023-05-21T03:54:48;95620.09;;;11.27;100.00
7824;BME280;3957;48.61947800;9.05303100;2023-05-21T03:55:50;95618.59;;;11.31;100.00
7824;BME280;3957;48.61947800;9.05303100;2023-05-21T03:56:57;95617.63;;;11.26;100.00
7824;BME280;3957;48.61947800;9.05303100;2023-05-21T03:58:00;95617.81;;;11.24;100.00
7824;BME280;3957;48.61947800;9.05303100;2023-05-21T03:59:02;95625.28;;;11.22;100.00
7824;BME280;3957;48.61947800;9.05303100;2023-05-21T04:00:06;95619.88;;;11.29;100.00
7824;BME280;3957;48.61947800;9.05303100;2023-05-21T04:01:16;95617.81;;;11.24;100.00
7824;BME280;3957;48.61947800;9.05303100;2023-05-21T04:02:20;95624.78;;;11.32;100.00
7824;BME280;3957;48.61947800;9.05303100;2023-05-21T04:03:22;95626.16;;;11.41;100.00
7824;BME280;3957;48.61947800;9.05303100;2023-05-21T04:04:23;95623.25;;;11.43;100.00
7824;BME280;3957;48.61947800;9.05303100;2023-05-21T04:05:25;95622.50;;;11.54;100.00
7824;BME280;3957;48.61947800;9.05303100;2023-05-21T04:06:27;95619.66;;;11.49;100.00
7824;BME280;3957;48.61947800;9.05303100;2023-05-21T04:07:29;95627.41;;;11.38;100.00
7824;BME280;3957;48.61947800;9.05303100;2023-05-21T04:08:31;95622.34;;;11.49;100.00
7824;BME280;3957;48.61947800;9.05303100;2023-05-21T04:09:32;95630.03;;;11.45;100.00
7824;BME280;3957;48.61947800;9.05303100;2023-05-21T04:10:37;95631.22;;;11.49;100.00
7824;BME280;3957;48.61947800;9.05303100;2023-05-21T04:11:38;95631.06;;;11.44;100.00
7824;BME280;3957;48.61947800;9.05303100;2023-05-21T04:12:40;95626.50;;;11.45;100.00
7824;BME280;3957;48.61947800;9.05303100;2023-05-21T04:13:41;95626.00;;;11.54;100.00
7824;BME280;3957;48.61947800;9.05303100;2023-05-21T04:14:43;95631.56;;;11.53;100.00
7824;BME280;3957;48.61947800;9.05303100;2023-05-21T04:15:45;95633.06;;;11.49;100.00
7824;BME280;3957;48.61947800;9.05303100;2023-05-21T04:16:47;95630.59;;;11.47;100.00
7824;BME280;3957;48.61947800;9.05303100;2023-05-21T04:17:49;95631.44;;;11.48;100.00
7824;BME280;3957;48.61947800;9.05303100;2023-05-21T04:18:52;95635.22;;;11.40;100.00
7824;BME280;3957;48.61947800;9.05303100;2023-05-21T04:19:59;95632.25;;;11.48;100.00
7824;BME280;3957;48.61947800;9.05303100;2023-05-21T04:21:00;95641.94;;;11.49;100.00
7824;BME280;3957;48.61947800;9.05303100;2023-05-21T04:22:03;95636.19;;;11.46;100.00
7824;BME280;3957;48.61947800;9.05303100;2023-05-21T04:23:05;95641.53;;;11.46;100.00
7824;BME280;3957;48.61947800;9.05303100;2023-05-21T04:24:07;95646.91;;;11.46;100.00
7824;BME280;3957;48.61947800;9.05303100;2023-05-21T04:25:35;95644.44;;;11.44;100.00
7824;BME280;3957;48.61947800;9.05303100;2023-05-21T04:26:37;95646.09;;;11.45;100.00
7824;BME280;3957;48.61947800;9.05303100;2023-05-21T04:27:42;95648.03;;;11.38;100.00
7824;BME280;3957;48.61947800;9.05303100;2023-05-21T04:28:48;95645.06;;;11.46;100.00
7824;BME280;3957;48.61947800;9.05303100;2023-05-21T04:29:50;95644.22;;;11.46;100.00
7824;BME280;3957;48.61947800;9.05303100;2023-05-21T04:30:52;95651.81;;;11.49;100.00
7824;BME280;3957;48.61947800;9.05303100;2023-05-21T04:31:54;95648.56;;;11.47;100.00
7824;BME280;3957;48.61947800;9.05303100;2023-05-21T04:32:57;95649.34;;;11.47;100.00
7824;BME280;3957;48.61947800;9.05303100;2023-05-21T04:34:00;95652.25;;;11.46;100.00
7824;BME280;3957;48.61947800;9.05303100;2023-05-21T04:35:03;95661.06;;;11.53;100.00
7824;BME280;3957;48.61947800;9.05303100;2023-05-21T04:36:05;95656.38;;;11.48;100.00
7824;BME280;3957;48.61947800;9.05303100;2023-05-21T04:37:10;95659.84;;;11.49;100.00
7824;BME280;3957;48.61947800;9.05303100;2023-05-21T04:38:12;95655.09;;;11.51;100.00
7824;BME280;3957;48.61947800;9.05303100;2023-05-21T04:39:15;95656.13;;;11.50;100.00
7824;BME280;3957;48.61947800;9.05303100;2023-05-21T04:40:17;95661.56;;;11.43;100.00
7824;BME280;3957;48.61947800;9.05303100;2023-05-21T04:41:24;95662.63;;;11.42;100.00
7824;BME280;3957;48.61947800;9.05303100;2023-05-21T04:42:26;95665.38;;;11.54;100.00
7824;BME280;3957;48.61947800;9.05303100;2023-05-21T04:43:29;95664.00;;;11.70;100.00
7824;BME280;3957;48.61947800;9.05303100;2023-05-21T04:44:34;95667.94;;;11.67;100.00
7824;BME280;3957;48.61947800;9.05303100;2023-05-21T04:45:37;95666.91;;;11.68;100.00
7824;BME280;3957;48.61947800;9.05303100;2023-05-21T04:46:38;95670.19;;;11.70;100.00
7824;BME280;3957;48.61947800;9.05303100;2023-05-21T04:47:42;95669.50;;;11.75;100.00
7824;BME280;3957;48.61947800;9.05303100;2023-05-21T04:48:44;95672.19;;;11.75;100.00
7824;BME280;3957;48.61947800;9.05303100;2023-05-21T04:49:47;95663.41;;;11.68;100.00
7824;BME280;3957;48.61947800;9.05303100;2023-05-21T04:50:48;95669.66;;;11.80;100.00
7824;BME280;3957;48.61947800;9.05303100;2023-05-21T04:51:50;95669.03;;;11.85;100.00
7824;BME280;3957;48.61947800;9.05303100;2023-05-21T04:52:52;95671.47;;;11.86;100.00
7824;BME280;3957;48.61947800;9.05303100;2023-05-21T04:53:55;95666.66;;;11.95;100.00
7824;BME280;3957;48.61947800;9.05303100;2023-05-21T04:54:58;95668.44;;;12.01;100.00
7824;BME280;3957;48.61947800;9.05303100;2023-05-21T04:56:01;95666.44;;;11.97;100.00
7824;BME280;3957;48.61947800;9.05303100;2023-05-21T04:57:05;95668.09;;;11.98;100.00
7824;BME280;3957;48.61947800;9.05303100;2023-05-21T04:58:08;95673.38;;;12.04;100.00
7824;BME280;3957;48.61947800;9.05303100;2023-05-21T04:59:13;95674.69;;;12.14;100.00
7824;BME280;3957;48.61947800;9.05303100;2023-05-21T05:00:15;95670.81;;;12.10;100.00